.
WxDataArchive / Data Records for 2015-06-13
2015-06-12 June 2015 2015-06-14

Data Records for Saturday, 13 June 2015

Time	Temp	Chill	HIndex	Humid	Dewpt	 Wind 	HiWind	WindDir	Rain 	Barom
-----	----	-----	------	-----	-----	------	------	-------	-----	-----
00:00	69.4	69.4	69.4	94	67.6	0	0	---	0.00	29.893 
00:05	69.4	69.4	69.4	94	67.6	0	0	---	0.00	29.893 
00:10	69.4	69.4	69.4	94	67.6	0	0	---	0.00	29.893 
00:15	69.4	69.4	69.4	95	67.9	0	0	---	0.00	29.900 
00:20	69.6	69.6	69.6	95	68.1	0	0	---	0.00	29.900 
00:25	69.6	69.6	69.6	94	67.8	0	0	---	0.00	29.900 
00:30	69.6	69.6	69.6	95	68.1	0	0	---	0.00	29.901 
00:35	69.4	69.4	69.4	95	67.9	0	0	---	0.00	29.901 
00:40	69.4	69.4	69.4	95	67.9	0	0	---	0.00	29.901 
00:45	69.4	69.4	69.4	95	67.9	0	0	---	0.00	29.905 
00:50	69.4	69.4	69.4	95	67.9	0	0	---	0.00	29.905 
00:55	69.4	69.4	69.4	95	67.9	0	0	---	0.00	29.905 
01:00	69.4	69.4	69.4	95	67.9	0	0	---	0.00	29.906 
01:05	69.3	69.3	69.3	95	67.8	0	0	---	0.00	29.906 
01:10	69.3	69.3	69.3	95	67.8	0	0	---	0.00	29.906 
01:15	69.3	69.3	69.3	95	67.8	0	0	---	0.00	29.906 
01:20	69.1	69.1	69.1	95	67.6	0	0	---	0.00	29.906 
01:25	69.1	69.1	69.1	95	67.6	0	0	---	0.00	29.906 
01:30	69.1	69.1	69.1	95	67.6	0	0	---	0.00	29.906 
01:35	69.3	69.3	69.3	95	67.8	0	0	---	0.00	29.906 
01:40	69.3	69.3	69.3	95	67.8	0	0	---	0.00	29.906 
01:45	69.3	69.3	69.3	95	67.8	0	0	---	0.00	29.904 
01:50	69.1	69.1	69.1	95	67.6	0	0	---	0.00	29.904 
01:55	69.1	69.1	69.1	95	67.6	0	0	---	0.00	29.904 
02:00	69.1	69.1	69.1	95	67.6	0	0	---	0.00	29.907 
02:05	69.1	69.1	69.1	95	67.6	0	0	---	0.00	29.907 
02:10	69.3	69.3	69.3	95	67.8	0	1	270	0.00	29.907 
02:15	69.3	69.3	69.3	95	67.8	0	0	---	0.00	29.901 
02:20	69.3	69.3	69.3	95	67.8	0	0	---	0.00	29.901 
02:25	69.3	69.3	69.3	95	67.8	0	0	---	0.00	29.901 
02:30	69.3	69.3	69.3	95	67.8	0	0	---	0.02	29.911 
02:35	69.3	69.3	69.3	95	67.8	0	0	---	0.07	29.911 
02:40	69.3	69.3	69.3	95	67.8	0	0	---	0.00	29.911 
02:45	69.3	69.3	69.3	95	67.8	0	0	---	0.00	29.902 
02:50	69.3	69.3	69.3	95	67.8	0	0	---	0.00	29.902 
02:55	69.3	69.3	69.3	95	67.8	0	0	---	0.01	29.902 
03:00	69.3	69.3	69.3	95	67.8	0	0	---	0.00	29.894 
03:05	69.3	69.3	69.3	95	67.8	0	0	---	0.00	29.894 
03:10	69.3	69.3	69.3	95	67.8	0	0	---	0.00	29.894 
03:15	69.3	69.3	69.3	95	67.8	0	0	---	0.00	29.893 
03:20	69.3	69.3	69.3	95	67.8	0	0	---	0.00	29.893 
03:25	69.3	69.3	69.3	96	68.1	0	1	270	0.00	29.893 
03:30	69.3	69.3	69.3	95	67.8	0	0	---	0.00	29.887 
03:35	69.3	69.3	69.3	96	68.1	0	0	---	0.00	29.887 
03:40	69.3	69.3	69.3	96	68.1	0	0	---	0.01	29.887 
03:45	69.3	69.3	69.3	96	68.1	0	0	---	0.00	29.892 
03:50	69.3	69.3	69.3	96	68.1	0	1	270	0.00	29.892 
03:55	69.1	69.1	69.1	96	67.9	0	0	---	0.00	29.892 
04:00	69.1	69.1	69.1	96	67.9	0	0	---	0.00	29.885 
04:05	69.1	69.1	69.1	96	67.9	0	0	---	0.00	29.885 
04:10	69.1	69.1	69.1	96	67.9	0	0	---	0.00	29.885 
04:15	68.9	68.9	68.9	96	67.7	0	0	---	0.00	29.884 
04:20	68.9	68.9	68.9	96	67.7	0	0	---	0.00	29.884 
04:25	68.9	68.9	68.9	96	67.7	0	0	---	0.00	29.884 
04:30	68.9	68.9	68.9	96	67.7	0	0	---	0.00	29.891 
04:35	68.9	68.9	68.9	96	67.7	0	0	---	0.00	29.891 
04:40	68.9	68.9	68.9	96	67.7	0	0	---	0.00	29.891 
04:45	69.1	69.1	69.1	96	67.9	0	0	---	0.00	29.898 
04:50	69.1	69.1	69.1	96	67.9	0	0	---	0.00	29.898 
04:55	69.1	69.1	69.1	96	67.9	0	0	---	0.00	29.898 
05:00	69.1	69.1	69.1	96	67.9	0	0	---	0.00	29.899 
05:05	69.1	69.1	69.1	96	67.9	0	0	---	0.00	29.899 
05:10	68.9	68.9	68.9	96	67.7	0	0	---	0.00	29.899 
05:15	68.9	68.9	68.9	96	67.7	0	0	---	0.00	29.904 
05:20	68.8	68.8	68.8	96	67.6	0	0	---	0.00	29.904 
05:25	68.8	68.8	68.8	96	67.6	0	0	---	0.00	29.904 
05:30	68.8	68.8	68.8	96	67.6	0	0	---	0.00	29.905 
05:35	68.8	68.8	68.8	96	67.6	0	0	---	0.00	29.905 
05:40	68.8	68.8	68.8	96	67.6	0	0	---	0.00	29.905 
05:45	68.8	68.8	68.8	96	67.6	0	0	---	0.00	29.915 
05:50	68.6	68.6	68.6	96	67.4	0	0	---	0.00	29.915 
05:55	68.6	68.6	68.6	96	67.4	0	0	---	0.00	29.915 
06:00	68.6	68.6	68.6	96	67.4	0	0	---	0.00	29.918 
06:05	68.6	68.6	68.6	96	67.4	0	0	---	0.00	29.918 
06:10	68.6	68.6	68.6	96	67.4	0	0	---	0.00	29.918 
06:15	68.4	68.4	68.4	96	67.2	0	0	---	0.00	29.922 
06:20	68.4	68.4	68.4	96	67.2	0	0	---	0.00	29.922 
06:25	68.3	68.3	68.3	96	67.1	0	0	---	0.00	29.922 
06:30	68.3	68.3	68.3	96	67.1	0	0	---	0.00	29.928 
06:35	68.3	68.3	68.3	96	67.1	0	0	---	0.00	29.928 
06:40	68.3	68.3	68.3	96	67.1	0	0	---	0.00	29.928 
06:45	68.3	68.3	68.3	96	67.1	0	0	---	0.00	29.934 
06:50	68.3	68.3	68.3	96	67.1	0	0	---	0.00	29.934 
06:55	68.4	68.4	68.4	96	67.2	0	1	270	0.00	29.934 
07:00	68.4	68.4	68.4	96	67.2	0	1	270	0.00	29.934 
07:05	68.6	68.6	68.6	96	67.4	0	2	270	0.00	29.934 
07:10	68.6	68.6	68.6	96	67.4	0	2	270	0.00	29.934 
07:15	68.6	68.6	68.6	96	67.4	0	2	270	0.00	29.930 
07:20	68.6	68.6	68.6	96	67.4	0	2	270	0.00	29.930 
07:25	68.6	68.6	68.6	96	67.4	0	1	270	0.00	29.930 
07:30	68.6	68.6	68.6	96	67.4	0	0	---	0.00	29.947 
07:35	68.8	68.8	68.8	96	67.6	0	1	270	0.00	29.947 
07:40	68.9	68.9	68.9	96	67.7	0	2	270	0.00	29.947 
07:45	69.3	69.3	69.3	96	68.1	0	1	270	0.00	29.950 
07:50	69.4	69.4	69.4	96	68.2	0	1	270	0.00	29.950 
07:55	69.6	69.6	69.6	96	68.4	0	1	270	0.00	29.950 
08:00	69.8	69.8	69.8	96	68.6	0	0	---	0.00	29.949 
08:05	69.9	69.9	69.9	96	68.7	0	0	---	0.00	29.949 
08:10	69.9	69.9	69.9	96	68.7	1	2	248	0.00	29.949 
08:15	69.9	69.9	69.9	96	68.7	0	2	248	0.01	29.954 
08:20	69.9	69.9	69.9	96	68.7	0	1	248	0.00	29.954 
08:25	69.9	69.9	69.9	96	68.7	0	1	248	0.01	29.954 
08:30	69.9	69.9	69.9	96	68.7	0	0	---	0.00	29.968 
08:35	69.9	69.9	69.9	96	68.7	0	0	---	0.03	29.968 
08:40	70.1	70.1	70.1	96	68.9	0	1	248	0.00	29.968 
08:45	70.1	70.1	70.1	96	68.9	0	0	---	0.01	29.967 
08:50	70.3	70.3	70.3	96	69.1	0	1	248	0.00	29.967 
08:55	70.4	70.4	70.4	96	69.2	0	3	248	0.00	29.967 
09:00	70.4	70.4	70.4	96	69.2	0	1	248	0.00	29.963 
09:05	70.4	70.4	70.4	96	69.2	0	2	248	0.00	29.963 
09:10	70.6	70.6	70.6	96	69.4	0	0	---	0.00	29.963 
09:15	70.6	70.6	70.6	96	69.4	0	0	---	0.00	29.964 
09:20	70.8	70.8	70.8	96	69.6	0	0	---	0.00	29.964 
09:25	70.9	70.9	70.9	96	69.7	0	0	---	0.00	29.964 
09:30	70.9	70.9	70.9	96	69.7	0	0	---	0.00	29.965 
09:35	70.9	70.9	70.9	96	69.7	0	2	248	0.00	29.965 
09:40	71.3	71.3	71.3	96	70.1	0	2	248	0.00	29.965 
09:45	71.5	71.5	71.5	96	70.3	0	2	248	0.00	29.968 
09:50	72.1	72.1	72.1	97	71.2	0	2	248	0.00	29.968 
09:55	72.8	72.8	72.8	97	71.9	0	3	248	0.00	29.968 
10:00	73.0	73.0	73.0	96	71.8	1	3	248	0.00	29.965 
10:05	73.3	73.3	73.3	96	72.1	0	1	248	0.00	29.965 
10:10	73.5	73.5	73.5	96	72.3	0	1	248	0.00	29.965 
10:15	74.0	74.0	74.0	96	72.8	0	0	---	0.00	29.968 
10:20	74.2	74.2	74.2	96	73.0	0	2	248	0.00	29.968 
10:25	74.0	74.0	74.0	96	72.8	1	2	248	0.00	29.968 
10:30	74.0	74.0	74.0	95	72.5	0	0	---	0.00	29.966 
10:35	74.2	74.2	74.2	95	72.7	0	0	---	0.00	29.966 
10:40	74.9	74.9	74.9	95	73.4	0	2	248	0.00	29.966 
10:45	75.1	75.1	73.6	94	73.2	1	3	248	0.00	29.964 
10:50	75.8	75.8	75.1	94	73.9	0	2	248	0.00	29.964 
10:55	75.8	75.8	75.3	93	73.6	0	1	248	0.00	29.964 
11:00	76.0	76.0	75.8	92	73.5	0	2	248	0.00	29.964 
11:05	76.1	76.1	76.0	92	73.6	0	1	248	0.00	29.964 
11:10	76.7	76.7	77.5	91	73.9	0	1	248	0.00	29.964 
11:15	76.8	76.8	77.8	89	73.3	0	1	248	0.00	29.961 
11:20	77.0	77.0	78.3	88	73.2	0	1	248	0.00	29.961 
11:25	77.0	77.0	78.3	88	73.2	0	1	248	0.00	29.961 
11:30	77.0	77.0	78.3	88	73.2	0	1	248	0.00	29.955 
11:35	77.2	77.2	78.7	88	73.4	0	1	248	0.00	29.955 
11:40	77.4	77.4	79.1	87	73.2	1	3	248	0.00	29.955 
11:45	77.7	77.7	79.8	86	73.2	0	1	248	0.00	29.953 
11:50	78.3	78.3	81.0	84	73.1	0	2	248	0.00	29.953 
11:55	78.8	78.8	81.9	82	72.8	0	2	248	0.00	29.953 
12:00	79.4	79.4	83.0	80	72.7	0	1	248	0.00	29.954 
12:05	79.8	79.8	83.8	80	73.1	0	1	248	0.00	29.954 
12:10	80.5	80.5	85.1	79	73.4	0	3	248	0.00	29.954 
12:15	81.6	81.6	87.2	77	73.7	0	1	248	0.00	29.949 
12:20	82.4	82.4	88.2	74	73.3	0	1	248	0.00	29.949 
12:25	82.8	82.8	88.5	72	72.8	0	2	248	0.00	29.949 
12:30	82.8	82.8	88.5	72	72.8	1	3	248	0.00	29.950 
12:35	83.0	83.0	89.2	73	73.4	0	3	248	0.00	29.950 
12:40	83.6	83.6	90.5	73	74.0	1	3	248	0.00	29.950 
12:45	83.4	83.4	89.8	72	73.4	0	3	248	0.00	29.951 
12:50	83.0	83.0	89.2	73	73.4	1	3	248	0.00	29.951 
12:55	83.0	83.0	89.2	73	73.4	1	3	248	0.00	29.951 
13:00	83.4	83.4	90.1	73	73.8	0	2	225	0.00	29.956 
13:05	83.8	83.8	90.7	72	73.8	0	2	225	0.00	29.956 
13:10	84.1	84.1	90.7	70	73.2	0	3	225	0.00	29.956 
13:15	84.0	84.0	90.2	69	72.7	0	3	112	0.00	29.958 
13:20	84.1	84.1	90.0	68	72.4	0	2	112	0.00	29.958 
13:25	83.8	83.8	89.4	68	72.1	1	3	112	0.00	29.958 
13:30	83.8	83.8	89.1	67	71.6	0	1	112	0.00	29.957 
13:35	84.1	84.1	90.7	70	73.2	1	3	112	0.00	29.957 
13:40	84.1	84.1	90.4	69	72.8	1	3	112	0.00	29.957 
13:45	84.1	84.1	89.7	67	71.9	1	3	112	0.00	29.951 
13:50	84.3	84.3	90.1	67	72.1	1	3	112	0.00	29.951 
13:55	84.5	84.5	90.5	67	72.3	0	1	112	0.00	29.951 
14:00	85.1	85.1	91.8	67	72.9	0	3	135	0.00	29.941 
14:05	85.7	85.7	92.3	65	72.5	0	2	135	0.00	29.941 
14:10	85.5	85.5	91.9	65	72.4	0	2	135	0.00	29.941 
14:15	85.5	85.5	91.6	64	71.9	1	3	135	0.00	29.933 
14:20	85.9	85.9	92.0	63	71.8	0	3	135	0.00	29.933 
14:25	85.7	85.7	90.2	59	69.7	2	5	292	0.00	29.933 
14:30	85.5	85.5	90.5	61	70.5	2	4	292	0.00	29.926 
14:35	85.5	85.5	90.5	61	70.5	1	3	292	0.00	29.926 
14:40	85.5	85.5	90.5	61	70.5	1	3	292	0.00	29.926 
14:45	86.1	86.1	92.0	62	71.5	1	3	292	0.00	29.922 
14:50	86.3	86.3	92.1	61	71.2	1	2	292	0.00	29.922 
14:55	86.7	86.7	92.5	60	71.1	1	3	292	0.00	29.922 
15:00	87.4	87.4	93.0	58	70.8	0	2	0	0.00	29.910 
15:05	87.6	87.6	93.0	57	70.4	1	3	0	0.00	29.910 
15:10	87.0	87.0	91.9	57	69.9	1	4	338	0.00	29.910 
15:15	86.1	86.1	90.6	58	69.6	1	3	315	0.00	29.905 
15:20	85.9	85.9	90.9	60	70.4	0	2	315	0.00	29.905 
15:25	86.1	86.1	90.9	59	70.1	0	2	315	0.00	29.905 
15:30	86.3	86.3	90.9	58	69.7	2	6	315	0.00	29.897 
15:35	86.5	86.5	91.7	59	70.4	0	6	315	0.00	29.897 
15:40	86.3	86.3	90.2	56	68.7	1	4	315	0.00	29.897 
15:45	86.3	86.3	90.9	58	69.7	0	3	315	0.00	29.895 
15:50	87.0	87.0	92.3	58	70.4	1	2	315	0.00	29.895 
15:55	87.2	87.2	92.3	57	70.1	0	2	315	0.00	29.895 
16:00	87.2	87.2	92.7	58	70.6	0	0	---	0.00	29.893 
16:05	87.6	87.6	93.4	58	71.0	0	1	315	0.00	29.893 
16:10	87.8	87.8	92.6	55	69.6	1	4	315	0.00	29.893 
16:15	88.0	88.0	93.8	57	70.8	0	1	315	0.00	29.894 
16:20	88.4	88.4	95.1	58	71.7	0	2	315	0.00	29.894 
16:25	88.6	88.6	93.7	54	69.8	1	3	315	0.00	29.894 
16:30	88.2	88.2	93.4	55	70.0	0	1	315	0.00	29.893 
16:35	87.8	87.8	93.8	58	71.1	0	1	315	0.00	29.893 
16:40	87.8	87.8	93.4	57	70.6	0	1	315	0.00	29.893 
16:45	87.2	87.2	91.9	56	69.6	0	3	315	0.00	29.892 
16:50	86.7	86.7	91.7	58	70.1	0	1	315	0.00	29.892 
16:55	86.1	86.1	90.6	58	69.6	0	2	315	0.00	29.892 
17:00	86.5	86.5	92.1	60	70.9	0	1	315	0.00	29.887 
17:05	87.4	87.4	93.0	58	70.8	0	1	315	0.00	29.887 
17:10	88.0	88.0	92.2	53	68.7	1	2	315	0.00	29.887 
17:15	88.6	88.6	93.3	53	69.2	0	1	315	0.00	29.878 
17:20	89.0	89.0	93.6	52	69.0	0	1	315	0.00	29.878 
17:25	88.6	88.6	92.9	52	68.7	0	1	315	0.00	29.878 
17:30	88.0	88.0	93.0	55	69.8	0	1	315	0.00	29.883 
17:35	87.8	87.8	93.4	57	70.6	0	2	315	0.00	29.883 
17:40	87.6	87.6	94.7	61	72.5	0	1	315	0.00	29.883 
17:45	87.4	87.4	94.3	61	72.3	0	1	315	0.00	29.882 
17:50	86.7	86.7	92.9	61	71.6	0	1	315	0.00	29.882 
17:55	86.1	86.1	92.0	62	71.5	0	1	315	0.00	29.882 
18:00	85.5	85.5	91.9	65	72.4	0	2	315	0.01	29.881 
18:05	83.8	83.8	90.7	72	73.8	0	1	315	0.06	29.881 
18:10	82.6	82.6	89.2	76	74.2	0	3	315	0.01	29.881 
18:15	81.4	81.4	87.4	80	74.6	0	0	---	0.00	29.884 
18:20	80.5	80.5	85.6	82	74.5	0	0	---	0.01	29.884 
18:25	79.9	79.9	84.4	83	74.3	0	0	---	0.00	29.884 
18:30	79.4	79.4	83.4	84	74.1	0	0	---	0.01	29.887 
18:35	78.6	78.6	81.6	84	73.3	1	4	315	0.00	29.887 
18:40	76.0	76.0	76.8	82	70.1	3	10	270	0.00	29.887 
18:45	74.2	74.2	74.2	84	69.0	2	7	270	0.00	29.946 
18:50	73.2	73.2	73.2	85	68.4	2	9	270	0.01	29.946 
18:55	72.1	72.1	72.1	85	67.3	1	3	270	0.02	29.946 
19:00	71.6	71.6	71.6	85	66.8	0	2	270	0.00	29.938 
19:05	71.5	71.5	71.5	85	66.7	0	1	270	0.00	29.938 
19:10	71.5	71.5	71.5	87	67.4	0	2	270	0.00	29.938 
19:15	71.6	71.6	71.6	88	67.8	0	2	270	0.00	29.927 
19:20	71.6	71.6	71.6	88	67.8	0	2	270	0.00	29.927 
19:25	71.6	71.6	71.6	88	67.8	1	4	338	0.00	29.927 
19:30	72.0	72.0	72.0	88	68.2	0	1	68	0.01	29.932 
19:35	72.0	72.0	72.0	88	68.2	0	1	68	0.00	29.932 
19:40	72.1	72.1	72.1	89	68.7	0	3	68	0.00	29.932 
19:45	72.3	72.3	72.3	89	68.9	0	1	68	0.00	29.918 
19:50	72.3	72.3	72.3	89	68.9	0	0	---	0.00	29.918 
19:55	72.3	72.3	72.3	89	68.9	0	1	68	0.00	29.918 
20:00	72.1	72.1	72.1	89	68.7	0	1	68	0.00	29.924 
20:05	72.1	72.1	72.1	89	68.7	0	1	68	0.00	29.924 
20:10	72.1	72.1	72.1	89	68.7	0	1	68	0.00	29.924 
20:15	71.8	71.8	71.8	89	68.4	0	1	68	0.00	29.935 
20:20	71.8	71.8	71.8	90	68.7	0	1	68	0.02	29.935 
20:25	71.6	71.6	71.6	90	68.5	0	0	---	0.00	29.935 
20:30	71.5	71.5	71.5	90	68.4	0	0	---	0.00	29.935 
20:35	71.3	71.3	71.3	91	68.5	0	1	68	0.01	29.935 
20:40	71.3	71.3	71.3	91	68.5	0	1	68	0.00	29.935 
20:45	71.3	71.3	71.3	91	68.5	0	0	---	0.00	29.948 
20:50	71.5	71.5	71.5	92	69.0	0	1	68	0.00	29.948 
20:55	71.5	71.5	71.5	92	69.0	0	0	---	0.00	29.948 
21:00	71.5	71.5	71.5	92	69.0	0	1	68	0.00	29.948 
21:05	71.5	71.5	71.5	92	69.0	0	0	---	0.00	29.948 
21:10	71.5	71.5	71.5	92	69.0	0	0	---	0.00	29.948 
21:15	71.5	71.5	71.5	92	69.0	0	1	68	0.00	29.942 
21:20	71.3	71.3	71.3	92	68.8	0	1	68	0.00	29.942 
21:25	71.3	71.3	71.3	92	68.8	0	0	---	0.00	29.942 
21:30	71.3	71.3	71.3	92	68.8	0	0	---	0.00	29.950 
21:35	71.3	71.3	71.3	93	69.2	0	0	---	0.00	29.950 
21:40	71.5	71.5	71.5	93	69.4	0	0	---	0.01	29.950 
21:45	71.3	71.3	71.3	93	69.2	0	0	---	0.02	29.968 
21:50	71.1	71.1	71.1	93	69.0	0	0	---	0.02	29.968 
21:55	70.9	70.9	70.9	93	68.8	0	0	---	0.02	29.968 
22:00	70.8	70.8	70.8	93	68.7	0	1	68	0.01	29.969 
22:05	70.4	70.4	70.4	93	68.3	0	1	68	0.01	29.969 
22:10	70.3	70.3	70.3	93	68.2	0	1	68	0.02	29.969 
22:15	70.1	70.1	70.1	93	68.0	0	1	68	0.01	29.964 
22:20	69.9	69.9	69.9	93	67.8	0	1	68	0.01	29.964 
22:25	69.8	69.8	69.8	93	67.7	0	0	---	0.01	29.964 
22:30	69.6	69.6	69.6	93	67.5	0	1	68	0.01	29.969 
22:35	69.6	69.6	69.6	93	67.5	0	1	68	0.00	29.969 
22:40	69.4	69.4	69.4	93	67.3	0	0	---	0.00	29.969 
22:45	69.4	69.4	69.4	94	67.6	0	0	---	0.00	29.970 
22:50	69.6	69.6	69.6	94	67.8	0	1	68	0.00	29.970 
22:55	69.6	69.6	69.6	94	67.8	0	1	68	0.00	29.970 
23:00	69.6	69.6	69.6	94	67.8	0	1	68	0.00	29.971 
23:05	69.6	69.6	69.6	94	67.8	1	2	68	0.00	29.971 
23:10	69.6	69.6	69.6	94	67.8	1	4	90	0.00	29.971 
23:15	69.6	69.6	69.6	94	67.8	0	2	112	0.00	29.970 
23:20	69.8	69.8	69.8	94	68.0	0	2	112	0.00	29.970 
23:25	69.9	69.9	69.9	94	68.1	1	3	112	0.00	29.970 
23:30	69.9	69.9	69.9	94	68.1	0	2	112	0.02	29.951 
23:35	69.9	69.9	69.9	94	68.1	0	1	112	0.03	29.951 
23:40	69.9	69.9	69.9	94	68.1	0	2	112	0.04	29.951 
23:45	69.8	69.8	69.8	94	68.0	0	1	112	0.02	29.948 
23:50	69.8	69.8	69.8	94	68.0	1	3	112	0.00	29.948 
23:55	69.6	69.6	69.6	94	67.8	1	4	112	0.00	29.948 

CoCoRaHS
IN-AL-39
A2 Web Hosting
Creative Commons License
GoDaddy
search engine by freefind advanced

loaded 2018-11-15 15:55:24 • last modified 2010-11-18 10:43:29
Privacy PolicyDisclaimer
• wx.awcolley.com is powered by PmWiki v.2002016 •
• all content (unless otherwise noted) © 2018 A W Colley